デリー の空港の天気 - METARとTAF

インディラ・ガンディー国際空港 ( VIDP / DEL ) - インド デリー
飛行場実況気象(Metar)
観測時間11/27 14:30 IST (11/27 09:00 UTC)
風向・風速西北西 2m/s
視程2500m
天気現象
なし
気温25℃
湿度32%
気圧1011hPa
METARVIDP 270900Z 29004KT 2500 FU NSC 25/07 Q1011 NOSIG
過去の天気等 Google飛行場航空写真 Wunderground天気予報

過去48時間のMETAR

飛行場予報(TAF)
発表時間: 11/27 10:30 IST (11/27 05:00 UTC)
予報対象時間: 27日11時 IST ~ 28日17時 IST
風向・風速西南西 2m/s
視程2000m
天気現象
なし
27日13時 IST ~ 27日15時 IST に徐々に
風向・風速北西 3m/s
視程3000m
天気現象煙霧
27日21時 IST ~ 27日23時 IST に徐々に
風向・風速不定 1m/s
視程2000m
天気現象
28日5時 IST ~ 28日7時 IST に徐々に
風向・風速静穏
視程800m
天気現象地霧
28日9時 IST ~ 28日11時 IST に徐々に
風向・風速西 3m/s
視程1500m
天気現象
28日12時 IST ~ 28日14時 IST に徐々に
視程2500m
天気現象煙霧
TAF VIDP 270500Z 2706/2812 25003KT 2000 FU NSC
BECMG 2708/2710 31005KT 3000 HZ
BECMG 2716/2718 VRB02KT 2000 FU
BECMG 2800/2802 00000KT 0800 MIFG
BECMG 2804/2806 27005KT 1500 FU
BECMG 2807/2809 2500 HZ